首页
METAR-TAF:

METAR-TAF

机场 :

萨拉托加, 怀俄明州, 美国

纬度: 41-26-41N, 经度: 106-49-25W, 海拔: 2137米

当前天气观测

该预报发布于24分钟前的20:35 UTC
风速11节,风向西南,有时为17节阵风
温度 31°C
湿度 9%
气压 1017 hPa
能見度: 16.1公里
天空无云

METAR: KSAA 222035Z AUTO 23011G17KT 10SM CLR 31/M05 A3004 RMK AO2

时间: 14:59 (20:59 UTC)


TAF: 丢失

超过4000个机场的气象观测和天气预报(METAR&TAF报告)。

可查询的气象台以黄色和红色小点在地图上表示。

将鼠标移到小点上方,可查看气象台名称。

然后点击查看天气观测和预报。

如需切换地图:点击带黑十字的绿色按钮放大地图;点击带横线的绿色按钮缩小地图;或者点击绿色箭头查看邻近地区的地图。


METAR-TAF: